BAW138 VABB-EGLL
Flight info
| Callsign | BAW138 |
|---|---|
| Flight time | N/A |
| Altitude | 34000 |
| Route | RAXET2A BISET P751 LEGEN N563 REXOD L883 UMILA N569 TOKRA DCT MEDPO DCT BOSOB DCT ITRUX Y511 KITUB/N0496F360 Y511 PMA Z712 WEJ L677 CVO L617 TANSA UL613 AMAXI/N0483F380 UL613 YNN UL611 TUMBO DCT RODON DCT VAKSU DCT ROTAR DCT SAFFA DCT ELMUR DCT RIPUS DCT DITON DCT HOC DCT LUL DCT RLP DCT ROTSI DCT KOTUN DCT NINAL DCT ABNUR DCT DIMAL DCT ALESO ALESO1H |
| Aircraft | B77W/H-SDE1E2E3FGHIJ2J3J4J5M1RWXY/LB1D1 |
Departure
| Time | N/A |
|---|---|
| Airport | Chhatrapati Shivaji Maharaj International Airport (VABB) |
Arrival
| Time | 2026-05-05 15:12 |
|---|---|
| Airport | London Heathrow Airport (EGLL) |
| Time | Latitude | Longitude | Altitude | Speed | Heading |
|---|---|---|---|---|---|
| 2026-05-05 13:55 | 46.82890 | 10.08434 | 39905 ft | 461 kts | 289° |
| 2026-05-05 13:55 | 46.84328 | 10.03386 | 39889 ft | 461 kts | 289° |
| 2026-05-05 13:56 | 46.86783 | 9.94767 | 39887 ft | 461 kts | 289° |
| 2026-05-05 13:56 | 46.89256 | 9.86058 | 39866 ft | 464 kts | 289° |
| 2026-05-05 13:57 | 46.91719 | 9.77344 | 39848 ft | 463 kts | 289° |
| 2026-05-05 13:57 | 46.94172 | 9.68640 | 39840 ft | 462 kts | 289° |
| 2026-05-05 13:58 | 46.96613 | 9.59938 | 39851 ft | 461 kts | 289° |
| 2026-05-05 13:58 | 46.99035 | 9.51273 | 39827 ft | 463 kts | 289° |
| 2026-05-05 13:59 | 47.02691 | 9.38138 | 39858 ft | 466 kts | 288° |
| 2026-05-05 14:00 | 47.06351 | 9.24917 | 39848 ft | 466 kts | 288° |
| 2026-05-05 14:00 | 47.08779 | 9.16105 | 39845 ft | 465 kts | 288° |
| 2026-05-05 14:01 | 47.11194 | 9.07310 | 39856 ft | 464 kts | 288° |
| 2026-05-05 14:01 | 47.13549 | 8.98692 | 39847 ft | 466 kts | 288° |
| 2026-05-05 14:02 | 47.15922 | 8.89985 | 39859 ft | 468 kts | 288° |
| 2026-05-05 14:02 | 47.18220 | 8.81035 | 39854 ft | 468 kts | 286° |
| 2026-05-05 14:03 | 47.20466 | 8.72044 | 39858 ft | 468 kts | 287° |
| 2026-05-05 14:03 | 47.22723 | 8.63056 | 39857 ft | 469 kts | 287° |
| 2026-05-05 14:04 | 47.24987 | 8.54052 | 39846 ft | 469 kts | 287° |
| 2026-05-05 14:04 | 47.27247 | 8.45045 | 39857 ft | 470 kts | 287° |
| 2026-05-05 14:05 | 47.29507 | 8.36069 | 39856 ft | 470 kts | 287° |
| 2026-05-05 14:05 | 47.31772 | 8.27031 | 39856 ft | 470 kts | 287° |
| 2026-05-05 14:06 | 47.34032 | 8.17970 | 39866 ft | 471 kts | 287° |
| 2026-05-05 14:06 | 47.36286 | 8.08895 | 39857 ft | 471 kts | 287° |
| 2026-05-05 14:07 | 47.38539 | 7.99793 | 39851 ft | 472 kts | 286° |
| 2026-05-05 14:07 | 47.40783 | 7.90690 | 39856 ft | 472 kts | 286° |
| 2026-05-05 14:08 | 47.43027 | 7.81549 | 39855 ft | 473 kts | 286° |
| 2026-05-05 14:08 | 47.45247 | 7.72471 | 39855 ft | 473 kts | 286° |
| 2026-05-05 14:09 | 47.47318 | 7.63235 | 39858 ft | 471 kts | 281° |
| 2026-05-05 14:09 | 47.48888 | 7.53843 | 39867 ft | 471 kts | 280° |
| 2026-05-05 14:10 | 47.50399 | 7.44474 | 39872 ft | 472 kts | 280° |
| 2026-05-05 14:10 | 47.51945 | 7.34993 | 39530 ft | 478 kts | 280° |
| 2026-05-05 14:11 | 47.52737 | 7.30155 | 38861 ft | 489 kts | 280° |
| 2026-05-05 14:11 | 47.53548 | 7.25201 | 38150 ft | 499 kts | 280° |
| 2026-05-05 14:11 | 47.54369 | 7.20191 | 37581 ft | 502 kts | 280° |
| 2026-05-05 14:11 | 47.55191 | 7.15181 | 37373 ft | 497 kts | 280° |
| 2026-05-05 14:12 | 47.55993 | 7.10283 | 37150 ft | 494 kts | 280° |
| 2026-05-05 14:12 | 47.56797 | 7.05349 | 36907 ft | 492 kts | 280° |
| 2026-05-05 14:12 | 47.57594 | 7.00434 | 36638 ft | 490 kts | 280° |
| 2026-05-05 14:12 | 47.58386 | 6.95532 | 36390 ft | 488 kts | 280° |
| 2026-05-05 14:13 | 47.59174 | 6.90639 | 36146 ft | 486 kts | 280° |
| 2026-05-05 14:13 | 47.59954 | 6.85772 | 35915 ft | 484 kts | 280° |
| 2026-05-05 14:13 | 47.60728 | 6.80931 | 35675 ft | 482 kts | 280° |
| 2026-05-05 14:13 | 47.61497 | 6.76108 | 35445 ft | 479 kts | 280° |
| 2026-05-05 14:14 | 47.62259 | 6.71316 | 35202 ft | 478 kts | 280° |
| 2026-05-05 14:14 | 47.63017 | 6.66533 | 34952 ft | 476 kts | 280° |
| 2026-05-05 14:14 | 47.63772 | 6.61754 | 34680 ft | 476 kts | 280° |
| 2026-05-05 14:14 | 47.64526 | 6.56970 | 34324 ft | 478 kts | 280° |
| 2026-05-05 14:15 | 47.65283 | 6.52154 | 33988 ft | 479 kts | 280° |
| 2026-05-05 14:15 | 47.66038 | 6.47344 | 33992 ft | 480 kts | 280° |
| 2026-05-05 14:15 | 47.67551 | 6.37650 | 33851 ft | 482 kts | 280° |
| 2026-05-05 14:16 | 47.69111 | 6.27954 | 33853 ft | 486 kts | 283° |
| 2026-05-05 14:16 | 47.71135 | 6.18353 | 33861 ft | 488 kts | 285° |
| 2026-05-05 14:17 | 47.73205 | 6.08792 | 33857 ft | 489 kts | 285° |
| 2026-05-05 14:17 | 47.75256 | 5.99168 | 33848 ft | 488 kts | 284° |
| 2026-05-05 14:18 | 47.77280 | 5.89537 | 33842 ft | 488 kts | 284° |
| 2026-05-05 14:18 | 47.79291 | 5.79902 | 33832 ft | 489 kts | 284° |
| 2026-05-05 14:19 | 47.81303 | 5.70219 | 33837 ft | 490 kts | 284° |
| 2026-05-05 14:19 | 47.83311 | 5.60523 | 33821 ft | 490 kts | 284° |
| 2026-05-05 14:20 | 47.85296 | 5.50882 | 33836 ft | 492 kts | 284° |
| 2026-05-05 14:20 | 47.87286 | 5.41180 | 33816 ft | 489 kts | 284° |
| 2026-05-05 14:21 | 47.89293 | 5.31461 | 33813 ft | 492 kts | 287° |
| 2026-05-05 14:21 | 47.92394 | 5.22333 | 33808 ft | 498 kts | 302° |
| 2026-05-05 14:22 | 47.96811 | 5.14363 | 33822 ft | 500 kts | 311° |
| 2026-05-05 14:22 | 48.01563 | 5.06745 | 33846 ft | 501 kts | 311° |
| 2026-05-05 14:23 | 48.06284 | 4.99069 | 33784 ft | 500 kts | 311° |
| 2026-05-05 14:23 | 48.10943 | 4.91365 | 33802 ft | 500 kts | 311° |
| 2026-05-05 14:24 | 48.15568 | 4.83668 | 33811 ft | 501 kts | 311° |
| 2026-05-05 14:24 | 48.20229 | 4.75897 | 33793 ft | 501 kts | 311° |
| 2026-05-05 14:25 | 48.24895 | 4.68103 | 33802 ft | 502 kts | 311° |
| 2026-05-05 14:25 | 48.29557 | 4.60287 | 33796 ft | 502 kts | 311° |
| 2026-05-05 14:26 | 48.34206 | 4.52445 | 33791 ft | 502 kts | 311° |
| 2026-05-05 14:26 | 48.38847 | 4.44588 | 33795 ft | 502 kts | 311° |
| 2026-05-05 14:27 | 48.43478 | 4.36726 | 33796 ft | 502 kts | 311° |
| 2026-05-05 14:27 | 48.48108 | 4.28846 | 33794 ft | 502 kts | 311° |
| 2026-05-05 14:28 | 48.52736 | 4.20943 | 33788 ft | 503 kts | 311° |
| 2026-05-05 14:28 | 48.57341 | 4.13059 | 33797 ft | 505 kts | 311° |
| 2026-05-05 14:29 | 48.61972 | 4.05103 | 33793 ft | 503 kts | 311° |
| 2026-05-05 14:29 | 48.66580 | 3.97164 | 33792 ft | 501 kts | 310° |
| 2026-05-05 14:30 | 48.71177 | 3.89222 | 33804 ft | 503 kts | 310° |
| 2026-05-05 14:30 | 48.76018 | 3.81560 | 33796 ft | 503 kts | 315° |
| 2026-05-05 14:31 | 48.81045 | 3.74163 | 33791 ft | 503 kts | 315° |
| 2026-05-05 14:31 | 48.86034 | 3.66813 | 33796 ft | 502 kts | 315° |
| 2026-05-05 14:32 | 48.91026 | 3.59377 | 33792 ft | 502 kts | 315° |
| 2026-05-05 14:32 | 48.96007 | 3.51902 | 33800 ft | 502 kts | 315° |
| 2026-05-05 14:33 | 49.00972 | 3.44428 | 33801 ft | 501 kts | 315° |
| 2026-05-05 14:33 | 49.05893 | 3.37001 | 33806 ft | 501 kts | 315° |
| 2026-05-05 14:34 | 49.10843 | 3.29511 | 33807 ft | 501 kts | 315° |
| 2026-05-05 14:34 | 49.15797 | 3.21992 | 33813 ft | 502 kts | 314° |
| 2026-05-05 14:35 | 49.20737 | 3.14471 | 33821 ft | 501 kts | 314° |
| 2026-05-05 14:35 | 49.25668 | 3.06942 | 33801 ft | 499 kts | 314° |
| 2026-05-05 14:36 | 49.30575 | 2.99427 | 33824 ft | 499 kts | 314° |
| 2026-05-05 14:36 | 49.35490 | 2.91877 | 33818 ft | 500 kts | 314° |
| 2026-05-05 14:37 | 49.40399 | 2.84314 | 33822 ft | 499 kts | 314° |
| 2026-05-05 14:37 | 49.45292 | 2.76752 | 33827 ft | 499 kts | 314° |
| 2026-05-05 14:38 | 49.50155 | 2.69214 | 33829 ft | 499 kts | 314° |
| 2026-05-05 14:38 | 49.55033 | 2.61631 | 33835 ft | 499 kts | 314° |
| 2026-05-05 14:39 | 49.59924 | 2.54048 | 33839 ft | 498 kts | 315° |
| 2026-05-05 14:39 | 49.65290 | 2.47274 | 33846 ft | 499 kts | 322° |
| 2026-05-05 14:40 | 49.70857 | 2.40865 | 33834 ft | 498 kts | 322° |
| 2026-05-05 14:40 | 49.75464 | 2.35523 | 33844 ft | 498 kts | 322° |
| 2026-05-05 14:41 | 49.80980 | 2.29036 | 33851 ft | 498 kts | 322° |
| 2026-05-05 14:41 | 49.86488 | 2.22509 | 33852 ft | 498 kts | 321° |
| 2026-05-05 14:42 | 49.91990 | 2.15970 | 33852 ft | 497 kts | 321° |
| 2026-05-05 14:42 | 49.97468 | 2.09444 | 33864 ft | 496 kts | 321° |
| 2026-05-05 14:43 | 50.02946 | 2.02902 | 33862 ft | 496 kts | 321° |
| 2026-05-05 14:43 | 50.08415 | 1.96349 | 33859 ft | 495 kts | 321° |
| 2026-05-05 14:44 | 50.13830 | 1.89842 | 33866 ft | 495 kts | 321° |
| 2026-05-05 14:44 | 50.19159 | 1.82967 | 33876 ft | 493 kts | 315° |
| 2026-05-05 14:45 | 50.24027 | 1.75518 | 33888 ft | 493 kts | 314° |
| 2026-05-05 14:45 | 50.28905 | 1.67964 | 33881 ft | 493 kts | 314° |
| 2026-05-05 14:46 | 50.33798 | 1.60451 | 33887 ft | 492 kts | 314° |
| 2026-05-05 14:46 | 50.38690 | 1.52953 | 33894 ft | 492 kts | 314° |
| 2026-05-05 14:47 | 50.43572 | 1.45446 | 33803 ft | 492 kts | 314° |
| 2026-05-05 14:47 | 50.46028 | 1.41658 | 32745 ft | 506 kts | 314° |
| 2026-05-05 14:47 | 50.48543 | 1.37774 | 31898 ft | 506 kts | 314° |
| 2026-05-05 14:48 | 50.51030 | 1.33850 | 30910 ft | 508 kts | 312° |
| 2026-05-05 14:48 | 50.53416 | 1.29762 | 30193 ft | 504 kts | 310° |
| 2026-05-05 14:48 | 50.55752 | 1.25683 | 29454 ft | 500 kts | 310° |
| 2026-05-05 14:48 | 50.58095 | 1.21649 | 28738 ft | 496 kts | 311° |
| 2026-05-05 14:49 | 50.60477 | 1.17756 | 28086 ft | 492 kts | 313° |
| 2026-05-05 14:49 | 50.62893 | 1.13967 | 27422 ft | 487 kts | 314° |
| 2026-05-05 14:49 | 50.65298 | 1.10242 | 26759 ft | 484 kts | 314° |
| 2026-05-05 14:49 | 50.67666 | 1.06561 | 26123 ft | 480 kts | 314° |
| 2026-05-05 14:50 | 50.70028 | 1.02854 | 25496 ft | 477 kts | 313° |
| 2026-05-05 14:50 | 50.72361 | 0.99162 | 24849 ft | 474 kts | 313° |
| 2026-05-05 14:50 | 50.74678 | 0.95478 | 24226 ft | 471 kts | 313° |
| 2026-05-05 14:50 | 50.76971 | 0.91817 | 23598 ft | 467 kts | 313° |
| 2026-05-05 14:51 | 50.79257 | 0.88165 | 22962 ft | 463 kts | 314° |
| 2026-05-05 14:51 | 50.81514 | 0.84557 | 22324 ft | 458 kts | 314° |
| 2026-05-05 14:51 | 50.83741 | 0.80994 | 21679 ft | 454 kts | 314° |
| 2026-05-05 14:51 | 50.85921 | 0.77500 | 21143 ft | 448 kts | 314° |
| 2026-05-05 14:52 | 50.88106 | 0.73994 | 20552 ft | 445 kts | 314° |
| 2026-05-05 14:52 | 50.90236 | 0.70572 | 20114 ft | 438 kts | 314° |
| 2026-05-05 14:52 | 50.92382 | 0.67121 | 19645 ft | 432 kts | 314° |
| 2026-05-05 14:52 | 50.94454 | 0.63784 | 19217 ft | 426 kts | 314° |
| 2026-05-05 14:53 | 50.96506 | 0.60474 | 18914 ft | 416 kts | 315° |
| 2026-05-05 14:53 | 50.98523 | 0.57216 | 18645 ft | 410 kts | 315° |
| 2026-05-05 14:53 | 51.00508 | 0.54005 | 18214 ft | 406 kts | 315° |
| 2026-05-05 14:53 | 51.02480 | 0.50811 | 17646 ft | 404 kts | 315° |
| 2026-05-05 14:54 | 51.04445 | 0.47626 | 17130 ft | 402 kts | 315° |
| 2026-05-05 14:54 | 51.06391 | 0.44468 | 16643 ft | 397 kts | 315° |
| 2026-05-05 14:54 | 51.08279 | 0.41468 | 15809 ft | 381 kts | 316° |
| 2026-05-05 14:54 | 51.10143 | 0.38633 | 14665 ft | 377 kts | 317° |
| 2026-05-05 14:55 | 51.12033 | 0.35789 | 13813 ft | 367 kts | 318° |
| 2026-05-05 14:55 | 51.13824 | 0.33086 | 13480 ft | 341 kts | 318° |
| 2026-05-05 14:55 | 51.14950 | 0.31379 | 13357 ft | 323 kts | 317° |
| 2026-05-05 14:55 | 51.16424 | 0.29121 | 13092 ft | 304 kts | 317° |
| 2026-05-05 14:56 | 51.17912 | 0.26837 | 12622 ft | 291 kts | 317° |
| 2026-05-05 14:56 | 51.19359 | 0.24622 | 12026 ft | 285 kts | 317° |
| 2026-05-05 14:56 | 51.20773 | 0.22453 | 11428 ft | 280 kts | 317° |
| 2026-05-05 14:56 | 51.22170 | 0.20310 | 10760 ft | 277 kts | 317° |
| 2026-05-05 14:57 | 51.23551 | 0.18194 | 10004 ft | 274 kts | 316° |
| 2026-05-05 14:57 | 51.24915 | 0.16094 | 9419 ft | 269 kts | 316° |
| 2026-05-05 14:57 | 51.26232 | 0.14065 | 9147 ft | 258 kts | 316° |
| 2026-05-05 14:57 | 51.27567 | 0.12009 | 8886 ft | 280 kts | 316° |
| 2026-05-05 14:58 | 51.29012 | 0.09780 | 8306 ft | 299 kts | 317° |
| 2026-05-05 14:58 | 51.30535 | 0.07432 | 7668 ft | 309 kts | 317° |
| 2026-05-05 14:58 | 51.32081 | 0.05044 | 7431 ft | 304 kts | 316° |
| 2026-05-05 14:58 | 51.33295 | 0.02421 | 7281 ft | 291 kts | 290° |
| 2026-05-05 14:59 | 51.33565 | -0.00687 | 7202 ft | 276 kts | 273° |
| 2026-05-05 14:59 | 51.33620 | -0.03700 | 7115 ft | 266 kts | 274° |
| 2026-05-05 14:59 | 51.33698 | -0.06599 | 7013 ft | 255 kts | 274° |
| 2026-05-05 14:59 | 51.33788 | -0.09367 | 6954 ft | 245 kts | 275° |
| 2026-05-05 15:00 | 51.33888 | -0.12043 | 6951 ft | 238 kts | 275° |
| 2026-05-05 15:00 | 51.33958 | -0.13798 | 6955 ft | 239 kts | 275° |
| 2026-05-05 15:00 | 51.34107 | -0.17398 | 6881 ft | 245 kts | 276° |
| 2026-05-05 15:00 | 51.34225 | -0.20125 | 6714 ft | 245 kts | 276° |
| 2026-05-05 15:01 | 51.34342 | -0.22800 | 6533 ft | 243 kts | 276° |
| 2026-05-05 15:01 | 51.34462 | -0.25485 | 6357 ft | 241 kts | 276° |
| 2026-05-05 15:01 | 51.34581 | -0.28158 | 6162 ft | 240 kts | 276° |
| 2026-05-05 15:01 | 51.34699 | -0.30815 | 5991 ft | 240 kts | 276° |
| 2026-05-05 15:02 | 51.34818 | -0.33475 | 5802 ft | 240 kts | 276° |
| 2026-05-05 15:02 | 51.34938 | -0.36121 | 5699 ft | 237 kts | 276° |
| 2026-05-05 15:02 | 51.35056 | -0.38770 | 5605 ft | 241 kts | 276° |
| 2026-05-05 15:02 | 51.35175 | -0.41464 | 5566 ft | 246 kts | 276° |
| 2026-05-05 15:03 | 51.35298 | -0.44204 | 5493 ft | 247 kts | 276° |
| 2026-05-05 15:03 | 51.35420 | -0.46930 | 5405 ft | 244 kts | 276° |
| 2026-05-05 15:03 | 51.35540 | -0.49648 | 5341 ft | 245 kts | 276° |
| 2026-05-05 15:03 | 51.35659 | -0.52372 | 5276 ft | 245 kts | 275° |
| 2026-05-05 15:04 | 51.35776 | -0.55112 | 5191 ft | 248 kts | 275° |
| 2026-05-05 15:04 | 51.35897 | -0.57897 | 5065 ft | 252 kts | 276° |
| 2026-05-05 15:04 | 51.36013 | -0.60639 | 4874 ft | 247 kts | 276° |
| 2026-05-05 15:04 | 51.36127 | -0.63369 | 4711 ft | 245 kts | 276° |
| 2026-05-05 15:05 | 51.36346 | -0.68742 | 4481 ft | 241 kts | 276° |
| 2026-05-05 15:05 | 51.36456 | -0.71451 | 4329 ft | 245 kts | 276° |
| 2026-05-05 15:05 | 51.36679 | -0.74117 | 4065 ft | 239 kts | 294° |
| 2026-05-05 15:06 | 51.37592 | -0.76226 | 3828 ft | 227 kts | 326° |
| 2026-05-05 15:06 | 51.38988 | -0.77145 | 3570 ft | 214 kts | 356° |
| 2026-05-05 15:06 | 51.40436 | -0.77230 | 3412 ft | 205 kts | 0° |
| 2026-05-05 15:06 | 51.41851 | -0.77261 | 3220 ft | 201 kts | 0° |
| 2026-05-05 15:07 | 51.43183 | -0.76981 | 3028 ft | 186 kts | 25° |
| 2026-05-05 15:07 | 51.44235 | -0.75989 | 3030 ft | 171 kts | 36° |
| 2026-05-05 15:07 | 51.45167 | -0.74753 | 3011 ft | 176 kts | 40° |
| 2026-05-05 15:07 | 51.46106 | -0.73434 | 3015 ft | 182 kts | 40° |
| 2026-05-05 15:08 | 51.47015 | -0.72003 | 2991 ft | 183 kts | 57° |
| 2026-05-05 15:08 | 51.47386 | -0.70098 | 2772 ft | 180 kts | 81° |
| 2026-05-05 15:08 | 51.47527 | -0.68145 | 2523 ft | 173 kts | 79° |
| 2026-05-05 15:08 | 51.47649 | -0.66246 | 2330 ft | 170 kts | 84° |
| 2026-05-05 15:09 | 51.47687 | -0.64352 | 2085 ft | 167 kts | 86° |
| 2026-05-05 15:09 | 51.47698 | -0.62552 | 1880 ft | 157 kts | 86° |
| 2026-05-05 15:09 | 51.47705 | -0.60780 | 1673 ft | 160 kts | 87° |
| 2026-05-05 15:09 | 51.47709 | -0.59022 | 1448 ft | 155 kts | 85° |
| 2026-05-05 15:10 | 51.47718 | -0.57308 | 1221 ft | 147 kts | 85° |
| 2026-05-05 15:10 | 51.47722 | -0.55714 | 1039 ft | 142 kts | 87° |
| 2026-05-05 15:10 | 51.47729 | -0.54090 | 841 ft | 149 kts | 87° |
| 2026-05-05 15:10 | 51.47734 | -0.52430 | 592 ft | 149 kts | 87° |
| 2026-05-05 15:11 | 51.47743 | -0.50790 | 380 ft | 146 kts | 88° |
| 2026-05-05 15:11 | 51.47751 | -0.49157 | 201 ft | 151 kts | 88° |
| 2026-05-05 15:11 | 51.47756 | -0.47490 | 94 ft | 141 kts | 90° |
| 2026-05-05 15:11 | 51.47759 | -0.46237 | 95 ft | 71 kts | 90° |
| 2026-05-05 15:12 | 51.47760 | -0.45638 | 92 ft | 17 kts | 89° |
| 2026-05-05 15:12 | 51.47715 | -0.45487 | 93 ft | 14 kts | 153° |
| 2026-05-05 15:12 | 51.47630 | -0.45473 | 95 ft | 9 kts | 188° |
| 2026-05-05 15:12 | 51.47597 | -0.45554 | 95 ft | 9 kts | 261° |
| 2026-05-05 15:13 | 51.47595 | -0.45658 | 95 ft | 9 kts | 270° |
| 2026-05-05 15:13 | 51.47567 | -0.45747 | 95 ft | 9 kts | 202° |
| 2026-05-05 15:13 | 51.47518 | -0.45794 | 94 ft | 9 kts | 256° |
| 2026-05-05 15:13 | 51.47517 | -0.45903 | 92 ft | 12 kts | 269° |
| 2026-05-05 15:14 | 51.47516 | -0.46053 | 92 ft | 14 kts | 269° |
| 2026-05-05 15:14 | 51.47515 | -0.46208 | 92 ft | 14 kts | 270° |
| 2026-05-05 15:14 | 51.47516 | -0.46363 | 92 ft | 14 kts | 270° |
| 2026-05-05 15:14 | 51.47514 | -0.46518 | 93 ft | 14 kts | 268° |
| 2026-05-05 15:15 | 51.47513 | -0.46672 | 92 ft | 14 kts | 264° |
| 2026-05-05 15:15 | 51.47494 | -0.46823 | 94 ft | 14 kts | 267° |
| 2026-05-05 15:15 | 51.47492 | -0.46978 | 92 ft | 14 kts | 269° |
| 2026-05-05 15:15 | 51.47491 | -0.47133 | 92 ft | 14 kts | 269° |
| 2026-05-05 15:16 | 51.47491 | -0.47288 | 91 ft | 14 kts | 269° |
| 2026-05-05 15:16 | 51.47490 | -0.47443 | 91 ft | 14 kts | 269° |
| 2026-05-05 15:16 | 51.47490 | -0.47600 | 92 ft | 14 kts | 270° |
| 2026-05-05 15:16 | 51.47489 | -0.47758 | 94 ft | 14 kts | 270° |
| 2026-05-05 15:17 | 51.47461 | -0.47865 | 94 ft | 10 kts | 199° |
| 2026-05-05 15:17 | 51.47390 | -0.47876 | 91 ft | 10 kts | 179° |
| 2026-05-05 15:17 | 51.47320 | -0.47875 | 91 ft | 10 kts | 179° |
| 2026-05-05 15:17 | 51.47248 | -0.47874 | 94 ft | 10 kts | 179° |
| 2026-05-05 15:18 | 51.47176 | -0.47873 | 93 ft | 10 kts | 179° |
| 2026-05-05 15:18 | 51.47102 | -0.47873 | 91 ft | 11 kts | 179° |
| 2026-05-05 15:18 | 51.47052 | -0.47828 | 94 ft | 9 kts | 105° |
| 2026-05-05 15:18 | 51.47049 | -0.47743 | 95 ft | 2 kts | 89° |
| 2026-05-05 15:19 | 51.47049 | -0.47739 | 95 ft | 0 kts | 89° |